Turpan, China
Current Conditions -  °F | °C
As of 6:00 PM on Thursday 23 Oct 2014 (Local Time) from ZWWW Reporting Station
Clear Clear  
Wind Chill: 66°   Ceiling: Unl
Heat Index: 66°   Visibility: 6mi
Dew Point: 39°   Wind: 7mph
Humidity: 37%   Direction: 290°WNW
Pressure: 29.88"   Gusts: NA
Location:  42.93°N, 89.2°E
Report Text: ZWWW 231000Z 29003MPS CAVOK 19/04 Q1012 NOSIG
Loading
Personal Weather Stations






























Interactive Weather Map
Tropical Storm Tracking
New forecast layout! Learn more

10-Day Weather Forecast

Advertisements
Track Severe Weather on mobile